Woodbridge, Virginia
Current Conditions -  °F | °C
As of 10:58 AM on Wednesday 22 Oct 2014 (Local Time) from KDAA Reporting Station
Moderate Rain Moderate Rain  
Wind Chill: 54°   Ceiling: 4900
Heat Index: 54°   Visibility: 9mi
Dew Point: 51°   Wind: 12mph
Humidity: 89%   Direction: 320°NW
Pressure: 29.93"   Gusts: NA
Location:  38.66°N, 77.25°W
Report Text: KDAA 221458Z 32010KT 9SM RA FEW028 OVC049 12/11 A2993 RMK SLP139 P006 60034 T01230106 51010
Loading
Personal Weather Stations






























Interactive Weather Map
Tropical Storm Tracking
New forecast layout! Learn more

10-Day Weather Forecast

Advertisements
Track Severe Weather on mobile